createdAt,value
2019-04-11T00:01:02.462Z,100.00
2019-04-11T00:04:10.148Z,100.00
2019-04-11T00:07:18.254Z,100.00
2019-04-11T00:10:26.068Z,100.00
2019-04-11T00:13:43.189Z,99.87
2019-04-11T00:16:50.481Z,96.72
2019-04-11T00:19:57.935Z,96.08
2019-04-11T00:23:06.025Z,94.62
2019-04-11T00:26:13.876Z,92.51
2019-04-11T00:29:21.161Z,89.38
2019-04-11T00:32:29.568Z,91.37
2019-04-11T00:35:36.887Z,93.15
2019-04-11T00:38:44.121Z,92.01
2019-04-11T00:41:52.384Z,91.33
2019-04-11T00:45:09.570Z,88.64
2019-04-11T00:48:17.561Z,89.39
2019-04-11T00:51:25.675Z,90.30
2019-04-11T00:54:33.181Z,91.53
2019-04-11T00:57:41.166Z,90.78
2019-04-11T01:00:57.811Z,91.67
2019-04-11T01:04:15.787Z,92.54
2019-04-11T01:07:23.054Z,91.89
2019-04-11T01:10:30.342Z,92.78
2019-04-11T01:13:44.372Z,93.73
2019-04-11T01:16:56.939Z,94.83
2019-04-11T01:20:05.237Z,94.14
2019-04-11T01:23:22.762Z,93.72
2019-04-11T01:26:30.119Z,94.95
2019-04-11T01:29:37.715Z,97.33
2019-04-11T01:32:54.858Z,97.55
2019-04-11T01:36:12.671Z,98.49
2019-04-11T01:39:45.936Z,100.00
2019-04-11T01:43:03.954Z,100.00
2019-04-11T01:46:11.104Z,100.00
2019-04-11T01:49:28.316Z,100.00
2019-04-11T01:52:36.289Z,100.00
2019-04-11T01:55:43.464Z,100.00
2019-04-11T01:58:51.215Z,100.00
2019-04-11T02:02:19.694Z,100.00
2019-04-11T02:05:29.376Z,100.00
2019-04-11T02:08:47.231Z,100.00
2019-04-11T02:11:54.762Z,100.00
2019-04-11T02:15:02.143Z,100.00
2019-04-11T02:18:09.451Z,100.00
2019-04-11T02:21:27.378Z,100.00
2019-04-11T02:24:52.258Z,100.00
2019-04-11T02:28:00.759Z,100.00
2019-04-11T02:31:10.136Z,100.00
2019-04-11T02:34:17.101Z,100.00
2019-04-11T02:37:26.129Z,100.00
2019-04-11T02:40:33.396Z,100.00
2019-04-11T02:43:44.172Z,100.00
2019-04-11T02:47:00.253Z,100.00
2019-04-11T02:50:08.219Z,100.00
2019-04-11T02:53:16.984Z,100.00
2019-04-11T02:56:25.799Z,100.00
2019-04-11T02:59:34.504Z,100.00
2019-04-11T03:02:53.143Z,100.00
2019-04-11T03:05:59.933Z,100.00
2019-04-11T03:09:08.348Z,100.00
2019-04-11T03:12:16.236Z,100.00
2019-04-11T03:15:48.711Z,100.00
2019-04-11T03:18:59.396Z,100.00
2019-04-11T03:21:52.302Z,100.00
2019-04-11T03:25:00.619Z,100.00
2019-04-11T03:28:14.053Z,100.00
2019-04-11T03:32:02.430Z,100.00
2019-04-11T03:35:34.850Z,100.00
2019-04-11T03:38:20.986Z,100.00
2019-04-11T03:41:21.978Z,100.00
2019-04-11T03:44:18.784Z,100.00
2019-04-11T03:47:34.116Z,100.00
2019-04-11T03:50:31.939Z,100.00
2019-04-11T03:53:37.487Z,100.00
2019-04-11T03:56:45.808Z,100.00
2019-04-11T03:59:54.510Z,100.00
2019-04-11T04:03:03.909Z,100.00
2019-04-11T04:06:12.827Z,100.00
2019-04-11T04:09:30.363Z,100.00
2019-04-11T04:12:40.062Z,100.00
2019-04-11T04:16:12.019Z,100.00
2019-04-11T04:19:35.355Z,100.00
2019-04-11T04:22:54.632Z,100.00
2019-04-11T04:26:03.016Z,100.00
2019-04-11T04:29:11.523Z,100.00
2019-04-11T04:32:20.589Z,100.00
2019-04-11T04:35:28.623Z,100.00
2019-04-11T04:38:37.705Z,100.00
2019-04-11T04:41:55.398Z,100.00
2019-04-11T04:44:55.937Z,100.00
2019-04-11T04:48:16.610Z,100.00
2019-04-11T04:51:31.889Z,100.00
2019-04-11T04:54:40.857Z,100.00
2019-04-11T04:57:48.860Z,100.00
2019-04-11T05:00:57.912Z,100.00
2019-04-11T05:04:15.754Z,100.00
2019-04-11T05:07:23.593Z,100.00
2019-04-11T05:10:32.592Z,100.00
2019-04-11T05:13:40.894Z,100.00
2019-04-11T05:16:50.305Z,100.00
2019-04-11T05:19:58.549Z,100.00
2019-04-11T05:23:15.102Z,100.00
2019-04-11T05:26:31.975Z,100.00
2019-04-11T05:29:49.468Z,100.00
2019-04-11T05:32:55.760Z,100.00
2019-04-11T05:36:03.972Z,100.00
2019-04-11T05:39:11.375Z,100.00
2019-04-11T05:42:19.969Z,100.00
2019-04-11T05:45:27.529Z,100.00
2019-04-11T05:48:58.934Z,100.00
2019-04-11T05:52:08.107Z,100.00
2019-04-11T05:55:25.902Z,100.00
2019-04-11T05:58:34.590Z,100.00
2019-04-11T06:01:46.565Z,100.00
2019-04-11T06:05:00.489Z,100.00
2019-04-11T06:08:10.014Z,100.00
2019-04-11T06:11:35.076Z,100.00
2019-04-11T06:14:47.501Z,100.00
2019-04-11T06:17:54.735Z,100.00
2019-04-11T06:21:10.224Z,100.00
2019-04-11T06:24:45.849Z,100.00
2019-04-11T06:28:15.211Z,100.00
2019-04-11T06:31:40.457Z,100.00
2019-04-11T06:35:09.799Z,100.00
2019-04-11T06:38:35.919Z,100.00
2019-04-11T06:41:50.589Z,100.00
2019-04-11T06:45:39.697Z,100.00
2019-04-11T06:49:02.441Z,100.00
2019-04-11T06:52:10.712Z,100.00
2019-04-11T06:55:46.919Z,100.00
2019-04-11T06:58:56.801Z,100.00
2019-04-11T07:02:19.689Z,100.00
2019-04-11T07:05:36.315Z,100.00
2019-04-11T07:08:52.211Z,100.00
2019-04-11T07:12:06.375Z,100.00
2019-04-11T07:15:15.751Z,100.00
2019-04-11T07:18:50.517Z,100.00
2019-04-11T07:21:58.191Z,100.00
2019-04-11T07:25:28.968Z,100.00
2019-04-11T07:29:04.511Z,100.00
2019-04-11T07:32:18.012Z,100.00
2019-04-11T07:35:45.445Z,100.00
2019-04-11T07:38:56.836Z,100.00
2019-04-11T07:42:39.116Z,100.00
2019-04-11T07:46:25.011Z,100.00
2019-04-11T07:49:35.097Z,100.00
2019-04-11T07:52:51.735Z,100.00
2019-04-11T07:56:00.915Z,100.00
2019-04-11T07:59:13.443Z,100.00
2019-04-11T08:02:39.756Z,100.00
2019-04-11T08:06:05.230Z,100.00
2019-04-11T08:09:50.646Z,100.00
2019-04-11T08:13:26.299Z,100.00
2019-04-11T08:17:11.489Z,100.00
2019-04-11T08:20:49.947Z,100.00
2019-04-11T08:23:58.204Z,100.00
2019-04-11T08:27:52.121Z,100.00
2019-04-11T08:30:54.944Z,100.00
2019-04-11T08:34:05.002Z,100.00
2019-04-11T08:37:42.089Z,100.00
2019-04-11T08:41:11.646Z,100.00
2019-04-11T08:44:23.816Z,100.00
2019-04-11T08:47:46.870Z,100.00
2019-04-11T08:51:03.080Z,100.00
2019-04-11T08:54:53.516Z,100.00
2019-04-11T08:58:22.618Z,100.00
2019-04-11T09:01:29.967Z,100.00
2019-04-11T09:05:04.019Z,100.00
2019-04-11T09:08:14.290Z,100.00
2019-04-11T09:11:24.718Z,100.00
2019-04-11T09:14:52.687Z,100.00
2019-04-11T09:18:09.225Z,100.00
2019-04-11T09:21:42.475Z,100.00
2019-04-11T09:25:07.867Z,100.00
2019-04-11T09:28:17.558Z,100.00
2019-04-11T09:32:00.066Z,100.00
2019-04-11T09:35:16.478Z,100.00
2019-04-11T09:38:24.350Z,100.00
2019-04-11T09:41:49.385Z,100.00
2019-04-11T09:45:11.024Z,100.00
2019-04-11T09:48:44.319Z,100.00
2019-04-11T09:52:08.884Z,100.00
2019-04-11T09:56:08.879Z,96.43
2019-04-11T10:00:07.368Z,98.72
2019-04-11T10:03:19.638Z,92.67
2019-04-11T10:06:53.028Z,92.88
2019-04-11T10:10:28.982Z,89.71
2019-04-11T10:13:53.807Z,88.62
2019-04-11T10:17:25.175Z,92.53
2019-04-11T10:20:32.907Z,89.49
2019-04-11T10:23:58.958Z,86.13
2019-04-11T10:27:41.839Z,87.38
2019-04-11T10:31:18.112Z,90.65
2019-04-11T10:34:35.640Z,85.15
2019-04-11T10:37:42.265Z,83.45
2019-04-11T10:41:08.450Z,82.19
2019-04-11T10:44:19.744Z,81.39
2019-04-11T10:47:29.162Z,81.78
2019-04-11T10:50:58.458Z,86.82
2019-04-11T10:54:07.357Z,98.41
2019-04-11T10:57:31.969Z,88.74
2019-04-11T11:00:48.332Z,88.05
2019-04-11T11:04:20.393Z,90.12
2019-04-11T11:07:30.798Z,90.67
2019-04-11T11:10:38.181Z,87.95
2019-04-11T11:14:19.251Z,87.32
2019-04-11T11:18:32.043Z,89.65
2019-04-11T11:21:32.175Z,88.70
2019-04-11T11:24:55.210Z,91.51
2019-04-11T11:28:03.632Z,93.58
2019-04-11T11:31:29.980Z,91.58
2019-04-11T11:35:05.358Z,93.37
2019-04-11T11:38:30.281Z,93.28
2019-04-11T11:42:06.209Z,93.02
2019-04-11T11:45:51.901Z,87.63
2019-04-11T11:49:03.023Z,88.24
2019-04-11T11:52:37.495Z,84.87
2019-04-11T11:55:45.403Z,82.67
2019-04-11T11:59:28.829Z,84.99
2019-04-11T12:02:44.352Z,84.44
2019-04-11T12:06:12.694Z,87.34
2019-04-11T12:09:38.431Z,89.32
2019-04-11T12:12:51.973Z,87.49
2019-04-11T12:16:23.777Z,86.91
2019-04-11T12:19:45.778Z,87.61
2019-04-11T12:23:04.818Z,84.69
2019-04-11T12:26:13.664Z,84.10
2019-04-11T12:29:36.396Z,86.02
2019-04-11T12:33:21.428Z,84.63
2019-04-11T12:36:32.267Z,85.00
2019-04-11T12:40:09.637Z,85.93
2019-04-11T12:43:17.103Z,85.49
2019-04-11T12:46:41.969Z,83.98
2019-04-11T12:50:15.894Z,80.31
2019-04-11T12:53:25.585Z,80.60
2019-04-11T12:56:50.559Z,78.13
2019-04-11T13:00:34.198Z,79.46
2019-04-11T13:04:16.951Z,78.36
2019-04-11T13:08:08.073Z,78.32
2019-04-11T13:11:16.372Z,77.42
2019-04-11T13:14:42.330Z,76.77
2019-04-11T13:17:58.291Z,78.35
2019-04-11T13:21:26.642Z,81.38
2019-04-11T13:25:23.510Z,75.23
2019-04-11T13:28:30.933Z,75.27
2019-04-11T13:31:55.743Z,77.95
2019-04-11T13:35:09.072Z,80.09
2019-04-11T13:38:22.189Z,77.15
2019-04-11T13:41:59.279Z,77.35
2019-04-11T13:45:07.358Z,80.02
2019-04-11T13:48:32.408Z,81.66
2019-04-11T13:51:56.307Z,82.69
2019-04-11T13:55:11.541Z,85.96
2019-04-11T13:58:59.423Z,86.79
2019-04-11T14:02:13.669Z,90.03
2019-04-11T14:05:21.058Z,97.05
2019-04-11T14:08:35.211Z,100.00
2019-04-11T14:12:04.623Z,100.00
2019-04-11T14:15:12.493Z,100.00
2019-04-11T14:18:32.960Z,100.00
2019-04-11T14:21:43.254Z,100.00
2019-04-11T14:25:06.459Z,100.00
2019-04-11T14:28:13.815Z,100.00
2019-04-11T14:31:55.846Z,100.00
2019-04-11T14:35:24.750Z,100.00
2019-04-11T14:38:32.843Z,100.00
2019-04-11T14:41:59.864Z,100.00
2019-04-11T14:45:16.083Z,100.00
2019-04-11T14:48:48.865Z,100.00
2019-04-11T14:52:17.810Z,98.64
2019-04-11T14:55:26.011Z,99.83
2019-04-11T14:59:10.838Z,97.90
2019-04-11T15:02:39.935Z,93.34
2019-04-11T15:05:50.765Z,93.64
2019-04-11T15:09:29.419Z,93.23
2019-04-11T15:12:54.162Z,90.93
2019-04-11T15:16:29.662Z,93.57
2019-04-11T15:19:36.379Z,91.83
2019-04-11T15:22:48.938Z,95.71
2019-04-11T15:26:34.287Z,96.05
2019-04-11T15:30:01.581Z,90.63
2019-04-11T15:33:30.446Z,88.81
2019-04-11T15:36:39.864Z,96.75
2019-04-11T15:40:09.132Z,90.12
2019-04-11T15:43:42.164Z,92.42
2019-04-11T15:46:48.428Z,93.11
2019-04-11T15:50:34.620Z,97.09
2019-04-11T15:54:17.968Z,100.00
2019-04-11T15:57:42.941Z,100.00
2019-04-11T16:01:14.983Z,100.00
2019-04-11T16:04:39.203Z,100.00
2019-04-11T16:08:31.566Z,100.00
2019-04-11T16:12:04.860Z,100.00
2019-04-11T16:15:32.216Z,100.00
2019-04-11T16:18:58.359Z,100.00
2019-04-11T16:22:18.598Z,96.88
2019-04-11T16:25:29.011Z,98.76
2019-04-11T16:29:14.670Z,100.00
2019-04-11T16:32:42.440Z,100.00
2019-04-11T16:36:19.486Z,98.70
2019-04-11T16:39:50.325Z,95.21
2019-04-11T16:43:00.974Z,91.30
2019-04-11T16:46:26.094Z,97.10
2019-04-11T16:49:33.322Z,86.83
2019-04-11T16:52:40.442Z,84.69
2019-04-11T16:55:57.347Z,85.83
2019-04-11T16:59:04.551Z,87.77
2019-04-11T17:02:21.859Z,86.09
2019-04-11T17:05:41.342Z,89.87
2019-04-11T17:09:13.391Z,97.85
2019-04-11T17:13:14.978Z,100.00
2019-04-11T17:16:31.786Z,100.00
2019-04-11T17:19:39.279Z,100.00
2019-04-11T17:22:55.812Z,100.00
2019-04-11T17:26:12.575Z,100.00
2019-04-11T17:29:29.476Z,98.84
2019-04-11T17:32:46.099Z,98.56
2019-04-11T17:35:53.402Z,94.41
2019-04-11T17:39:10.143Z,96.49
2019-04-11T17:42:17.440Z,94.78
2019-04-11T17:45:23.518Z,95.96
2019-04-11T17:48:30.734Z,94.32
2019-04-11T17:51:38.033Z,97.59
2019-04-11T17:54:45.342Z,97.47
2019-04-11T17:57:54.874Z,97.75
2019-04-11T18:01:05.136Z,96.82
2019-04-11T18:04:13.513Z,98.15
2019-04-11T18:07:20.850Z,95.69
2019-04-11T18:10:28.511Z,95.62
2019-04-11T18:13:35.851Z,94.53
2019-04-11T18:16:43.159Z,95.71
2019-04-11T18:19:59.773Z,95.57
2019-04-11T18:23:19.648Z,96.28
2019-04-11T18:26:34.958Z,96.86
2019-04-11T18:29:42.091Z,97.81
2019-04-11T18:32:49.315Z,96.59
2019-04-11T18:35:56.570Z,97.21
2019-04-11T18:39:05.969Z,97.85
2019-04-11T18:42:13.538Z,95.37
2019-04-11T18:45:20.317Z,95.12
2019-04-11T18:48:27.547Z,96.49
2019-04-11T18:51:34.878Z,98.53
2019-04-11T18:54:42.236Z,96.59
2019-04-11T18:57:49.707Z,95.12
2019-04-11T19:00:56.886Z,98.56
2019-04-11T19:04:04.266Z,97.08
2019-04-11T19:07:13.242Z,98.07
2019-04-11T19:10:20.573Z,96.48
2019-04-11T19:13:37.357Z,96.19
2019-04-11T19:16:46.090Z,96.61
2019-04-11T19:20:02.966Z,96.61
2019-04-11T19:23:10.267Z,96.87
2019-04-11T19:26:27.084Z,97.36
2019-04-11T19:29:43.763Z,97.96
2019-04-11T19:33:00.847Z,97.12
2019-04-11T19:36:17.270Z,97.25
2019-04-11T19:39:24.511Z,98.55
2019-04-11T19:42:31.639Z,98.66
2019-04-11T19:45:38.256Z,97.25
2019-04-11T19:48:45.382Z,97.59
2019-04-11T19:51:51.504Z,99.22
2019-04-11T19:55:04.713Z,99.66
2019-04-11T19:58:11.483Z,100.00
2019-04-11T20:01:22.756Z,100.00
2019-04-11T20:04:27.777Z,100.00
2019-04-11T20:07:35.040Z,100.00
2019-04-11T20:10:42.576Z,100.00
2019-04-11T20:13:49.806Z,100.00
2019-04-11T20:16:57.444Z,100.00
2019-04-11T20:20:14.140Z,100.00
2019-04-11T20:23:30.868Z,100.00
2019-04-11T20:26:38.095Z,100.00
2019-04-11T20:29:45.328Z,100.00
2019-04-11T20:33:03.077Z,100.00
2019-04-11T20:36:11.487Z,100.00
2019-04-11T20:39:18.716Z,100.00
2019-04-11T20:42:25.960Z,100.00
2019-04-11T20:45:35.387Z,100.00
2019-04-11T20:48:42.565Z,100.00
2019-04-11T20:51:49.788Z,100.00
2019-04-11T20:54:57.079Z,100.00
2019-04-11T20:58:04.397Z,100.00
2019-04-11T21:01:11.840Z,100.00
2019-04-11T21:04:28.461Z,100.00
2019-04-11T21:07:35.868Z,100.00
2019-04-11T21:10:52.521Z,100.00
2019-04-11T21:18:21.239Z,100.00
2019-04-11T21:21:28.477Z,100.00
2019-04-11T21:24:36.231Z,100.00
2019-04-11T21:27:42.306Z,100.00
2019-04-11T21:31:00.096Z,100.00
2019-04-11T21:34:17.238Z,100.00
2019-04-11T21:37:36.574Z,100.00
2019-04-11T21:40:42.955Z,100.00
2019-04-11T21:43:59.626Z,100.00
2019-04-11T21:47:07.928Z,100.00
2019-04-11T21:50:15.199Z,100.00
2019-04-11T21:53:22.549Z,100.00
2019-04-11T21:56:29.823Z,100.00
2019-04-11T21:59:37.167Z,100.00
2019-04-11T22:02:44.471Z,100.00
2019-04-11T22:06:01.382Z,100.00
2019-04-11T22:09:18.191Z,100.00
2019-04-11T22:12:35.008Z,100.00
2019-04-11T22:15:51.795Z,100.00
2019-04-11T22:19:08.588Z,100.00
2019-04-11T22:22:25.306Z,100.00
2019-04-11T22:25:32.614Z,100.00
2019-04-11T22:28:39.747Z,100.00
2019-04-11T22:31:47.055Z,100.00
2019-04-11T22:35:04.179Z,100.00
2019-04-11T22:38:20.551Z,100.00
2019-04-11T22:41:27.791Z,100.00
2019-04-11T22:44:44.528Z,100.00
2019-04-11T22:47:51.759Z,100.00
2019-04-11T22:51:08.881Z,100.00
2019-04-11T22:54:27.035Z,100.00
2019-04-11T22:57:44.394Z,100.00
2019-04-11T23:00:51.794Z,100.00
2019-04-11T23:04:00.870Z,100.00
2019-04-11T23:07:08.006Z,100.00
2019-04-11T23:10:17.053Z,100.00
2019-04-11T23:13:24.527Z,100.00
2019-04-11T23:16:31.755Z,100.00
2019-04-11T23:19:48.581Z,100.00
2019-04-11T23:23:05.363Z,100.00
2019-04-11T23:26:22.086Z,100.00
2019-04-11T23:29:29.409Z,100.00
2019-04-11T23:32:46.147Z,100.00
2019-04-11T23:36:03.072Z,100.00
2019-04-11T23:39:22.726Z,100.00
2019-04-11T23:42:38.049Z,100.00
2019-04-11T23:45:45.355Z,100.00
2019-04-11T23:49:02.183Z,100.00
2019-04-11T23:52:18.895Z,100.00
2019-04-11T23:55:29.861Z,100.00
2019-04-11T23:58:44.560Z,100.00
